Aérodrome :
LOGIN :

S'inscrire | Disclaimer

   EN    FR    IT 

 










Légende :    VFR   VFR Marginal   IFR   IFR Intensif   IFR Très Intensif
Visi : 
Plafond : 
>= 8 km
>= 3000ft
5 à 8 km
1000 à 3000 ft
1500m à 5 km
500 à 1000 ft
800 à 1500m
200 à 500 ft
< 800m
< 200 ft
Symboles :   Orages  Brouillard  Fortes neiges  Fortes précipitations  Vent > 20 kt
SIGMETs :   Divers  Orages  Givrage  Turbulence  Onde Orograph.  Cendres Volcan.






- Altitude de l'aérodrome : 45 ft
- Code IATA : CEG


EGNR - Hawarden Chester

DERNIER METAR :
  • 031050Z 23021KT 9999 VCSH FEW018 SCT022 16/11 Q1010

METARs EXPIRÉS :
  • 031020Z 23024KT 9999 FEW018 SCT022 16/11 Q1010
  • 030950Z 23027G39KT 9999 FEW015 SCT022 15/11 Q1010
  • 030920Z 23022G33KT 9999 FEW015 SCT022 15/11 Q1010
  • 030850Z 22016KT 9999 VCSH FEW016 SCT022 15/11 Q1011
  • 030820Z 21017KT 190V250 9999 VCSH BKN022 14/11 Q1011

TAF AMD TAF EGNR
Valide du 03 à 09h jusqu'au 03 à 18h UTC


030948Z 0309/0318 21015G25KT 9999 BKN025
TEMPO 0309/0318 7000 RA BKN014
PROB40
TEMPO 0309/0317 23025G35KT



MET'MAP, la Météo Aéronautique d'un coup d'oeil ! - Copyright ORBIFLY Décembre 2007 - Disclaimer

ORBIFLY MET'MAP TEAM :

Programmation & Développement : Alexandra Zaïnal
Sur une idée originale de : Baudouin d'Aumeries
Assistance à la programmation : Marc-Olivier Méhu
Soutien technique & logistique : Manuel Goepfert

Contact : metmap@orbifly.com




SOURCES & CREDITS :

   NOAA